WetterOnline ( https://www.wetteronline.de )

Wetter aktuell Tellingstedt

Aktuelles Wetter: Heide/Elpersbüttel (5m)

6-stündlich | Neueste Meldungen
Ortszeit Temperatur Wetter
Sa, 19.09. 8:00 5.6° C wolkig
Sa, 19.09. 2:00 7.5° C wolkig
Fr, 18.09. 20:00 12.9° C fast wolkenlos
Fr, 18.09. 14:00 16.9° C leicht bewölkt
Fr, 18.09. 8:00 5.5° C wolkenlos
Fr, 18.09. 2:00 6.2° C wolkenlos
Do, 17.09. 20:00 11.3° C -
Do, 17.09. 14:00 16.1° C wolkenlos
Ortszeit Temperatur Wetter
Sa, 19.09. 8:30 7.1° C wolkig
Sa, 19.09. 8:20 7.1° C wolkig
Sa, 19.09. 8:10 6.8° C wolkig
Sa, 19.09. 8:00 5.6° C wolkig
Sa, 19.09. 7:50 5.6° C wolkig
Sa, 19.09. 7:40 5.3° C wolkig
Sa, 19.09. 7:30 5.4° C fast wolkenlos
Sa, 19.09. 7:00 5.0° C wolkenlos
Sa, 19.09. 6:30 5.1° C wolkenlos
Sa, 19.09. 6:00 5.9° C wolkenlos
Sa, 19.09. 5:30 6.2° C fast wolkenlos
Ortszeit Relative Feuchte Sichtweite
Sa, 19.09. 8:00 95% 30 km
Sa, 19.09. 2:00 94% 24 km
Fr, 18.09. 20:00 72% 55 km
Fr, 18.09. 14:00 49% 60 km
Fr, 18.09. 8:00 98% 20 km
Fr, 18.09. 2:00 96% 30 km
Do, 17.09. 20:00 75% 60 km
Do, 17.09. 14:00 56% >70 km
Ortszeit Relative Feuchte Sichtweite
Sa, 19.09. 8:30 88% 40 km
Sa, 19.09. 8:20 88% -
Sa, 19.09. 8:10 89% -
Sa, 19.09. 8:00 95% 30 km
Sa, 19.09. 7:50 95% -
Sa, 19.09. 7:40 93% -
Sa, 19.09. 7:30 94% 35 km
Sa, 19.09. 7:00 93% 30 km
Sa, 19.09. 6:30 91% 35 km
Sa, 19.09. 6:00 89% 50 km
Sa, 19.09. 5:30 88% 50 km
Ortszeit Niederschlagsmenge Niederschlagsart
Sa, 19.09. 8:00 0.0 l/m2 in 12 Std. -
Sa, 19.09. 2:00 0.0 l/m2 in 6 Std. -
Fr, 18.09. 20:00 0.0 l/m2 in 12 Std. -
Fr, 18.09. 14:00 0.0 l/m2 in 6 Std. -
Fr, 18.09. 8:00 0.0 l/m2 in 12 Std. -
Fr, 18.09. 2:00 0.0 l/m2 in 6 Std. -
Do, 17.09. 20:00 0.0 l/m2 in 12 Std. -
Do, 17.09. 14:00 0.0 l/m2 in 6 Std. -
Ortszeit Niederschlagsmenge Niederschlagsart
Sa, 19.09. 8:30 0.0 l/m2 in 1 Std. -
Sa, 19.09. 8:20 keine Meldung -
Sa, 19.09. 8:10 keine Meldung -
Sa, 19.09. 8:00 0.0 l/m2 in 1 Std. -
Sa, 19.09. 7:50 keine Meldung -
Sa, 19.09. 7:40 keine Meldung -
Sa, 19.09. 7:30 0.0 l/m2 in 1 Std. -
Sa, 19.09. 7:00 0.0 l/m2 in 1 Std. -
Sa, 19.09. 6:30 0.0 l/m2 in 1 Std. -
Sa, 19.09. 6:00 0.0 l/m2 in 1 Std. -
Sa, 19.09. 5:30 0.0 l/m2 in 1 Std. -
Ortszeit Stärke Spitze Richtung
km/h Bft. km/h Grad Sektor
Sa, 19.09. 8:00 4 1 14 80° O
Sa, 19.09. 2:00 7 2 18 70° O
Fr, 18.09. 20:00 13 3 20 50° NO
Fr, 18.09. 14:00 11 2 18 70° O
Fr, 18.09. 8:00 7 2 11 90° O
Fr, 18.09. 2:00 7 2 11 60° NO
Do, 17.09. 20:00 9 2 26 60° NO
Do, 17.09. 14:00 13 3 28 50° NO
Ortszeit Stärke Spitze Richtung
km/h Bft. km/h Grad Sektor
Sa, 19.09. 8:30 6 1 7 80° O
Sa, 19.09. 8:20 6 1 - 80° O
Sa, 19.09. 8:10 6 1 - 60° NO
Sa, 19.09. 8:00 4 1 11 80° O
Sa, 19.09. 7:50 4 1 - 80° O
Sa, 19.09. 7:40 6 1 - 80° O
Sa, 19.09. 7:30 7 2 11 60° NO
Sa, 19.09. 7:00 7 2 11 50° NO
Sa, 19.09. 6:30 7 2 11 40° NO
Sa, 19.09. 6:00 9 2 13 50° NO
Sa, 19.09. 5:30 7 2 11 50° NO
Ortszeit Untergrenze Bedeckung Gattung
total tief tief mittel hoch
Sa, 19.09. 8:00 9000 m 8/8 0/8 - - -
Sa, 19.09. 2:00 9000 m 8/8 0/8 - - -
Fr, 18.09. 20:00 10500 m 2/8 0/8 - - -
Fr, 18.09. 14:00 10500 m 6/8 0/8 - - -
Fr, 18.09. 8:00 - 0/8 0/8 - - -
Fr, 18.09. 2:00 - 0/8 0/8 - - -
Do, 17.09. 20:00 - - - - - -
Do, 17.09. 14:00 8400 m 0/8 0/8 - - -
Ortszeit Bedeckungsgrad in Achtel und Wolkenuntergrenze
Sa, 19.09. 8:30 7(8400m) 8(9000m)
Sa, 19.09. 8:20 7(8400m) 8(9000m)
Sa, 19.09. 8:10 6(8700m) 8(9000m)
Sa, 19.09. 8:00 6(9000m) 8(9000m) 8(10500m)
Sa, 19.09. 7:50 6(9000m) 8(9000m) 8(10500m)
Sa, 19.09. 7:40 6(9000m) 7(10500m) 7(10500m)
Sa, 19.09. 7:30 2(10500m) 5(10500m) 5(10500m)
Sa, 19.09. 7:00 keine Wolken
Sa, 19.09. 6:30 keine Wolken
Sa, 19.09. 6:00 keine Wolken
Sa, 19.09. 5:30 2(12000m)
Ortszeit Luftdruck NN (hPa) Tendenz (hPa in 3 Std.)
Sa, 19.09. 8:00 1025 - 0,2
Sa, 19.09. 2:00 1027 - 0,5
Fr, 18.09. 20:00 1027 - 0,8
Fr, 18.09. 14:00 1030 - 1,7
Fr, 18.09. 8:00 1031 - 0,1
Fr, 18.09. 2:00 1031 - 0,4
Do, 17.09. 20:00 1031 + 0,5
Do, 17.09. 14:00 1032 - 0,3
Ortszeit Luftdruck NN (hPa) Tendenz (hPa in 3 Std.)
Sa, 19.09. 8:30 1025 - 0,4
Sa, 19.09. 8:20 1025 keine Meldung
Sa, 19.09. 8:10 1025 keine Meldung
Sa, 19.09. 8:00 1025 - 0,2
Sa, 19.09. 7:50 1025 keine Meldung
Sa, 19.09. 7:40 1025 keine Meldung
Sa, 19.09. 7:30 1025 - 0,6
Sa, 19.09. 7:00 1025 - 0,8
Sa, 19.09. 6:30 1025 - 0,9
Sa, 19.09. 6:00 1026 - 0,8
Sa, 19.09. 5:30 1026 - 1,0
Ortszeit Schneehöhe (cm)
Sa, 19.09. 8:00 -
Sa, 19.09. 2:00 -
Fr, 18.09. 20:00 -
Fr, 18.09. 14:00 -
Fr, 18.09. 8:00 -
Fr, 18.09. 2:00 -
Do, 17.09. 20:00 -
Do, 17.09. 14:00 -
Ortszeit Schneehöhe (cm)
Sa, 19.09. 8:30 -
Sa, 19.09. 8:20 -
Sa, 19.09. 8:10 -
Sa, 19.09. 8:00 -
Sa, 19.09. 7:50 -
Sa, 19.09. 7:40 -
Sa, 19.09. 7:30 -
Sa, 19.09. 7:00 -
Sa, 19.09. 6:30 -
Sa, 19.09. 6:00 -
Sa, 19.09. 5:30 -
Link zu dieser Seite / Seite empfehlen

Das Wetter in ...